createdAt,value
2022-08-07T00:01:43.669Z,98010.78
2022-08-07T00:04:15.511Z,98016.53
2022-08-07T00:06:51.366Z,98016.44
2022-08-07T00:09:21.206Z,98015.25
2022-08-07T00:11:55.660Z,98016.09
2022-08-07T00:14:30.983Z,98009.16
2022-08-07T00:17:02.559Z,98016.91
2022-08-07T00:19:34.335Z,98030.03
2022-08-07T00:22:24.514Z,98023.50
2022-08-07T00:25:15.719Z,98024.53
2022-08-07T00:27:52.471Z,98027.94
2022-08-07T00:30:27.451Z,98030.66
2022-08-07T00:33:00.458Z,98030.13
2022-08-07T00:35:30.652Z,98025.16
2022-08-07T00:38:01.077Z,98028.78
2022-08-07T00:40:39.458Z,98031.25
2022-08-07T00:43:09.801Z,98035.94
2022-08-07T00:45:39.101Z,98031.66
2022-08-07T00:48:09.359Z,98038.53
2022-08-07T00:50:50.456Z,98035.69
2022-08-07T00:53:21.486Z,98043.44
2022-08-07T00:56:02.753Z,98045.47
2022-08-07T00:58:32.532Z,98028.06
2022-08-07T01:00:59.954Z,98035.31
2022-08-07T01:03:55.864Z,98040.28
2022-08-07T01:06:14.612Z,98037.94
2022-08-07T01:08:51.467Z,98033.34
2022-08-07T01:12:27.804Z,98033.16
2022-08-07T01:14:09.189Z,98030.84
2022-08-07T01:16:37.137Z,98026.06
2022-08-07T01:19:14.889Z,98031.16
2022-08-07T01:21:53.227Z,98031.34
2022-08-07T01:24:25.769Z,98025.19
2022-08-07T01:26:54.517Z,98026.75
2022-08-07T01:29:27.680Z,98023.44
2022-08-07T01:31:59.907Z,98029.16
2022-08-07T01:34:32.918Z,98033.19
2022-08-07T01:37:09.729Z,98042.41
2022-08-07T01:39:41.430Z,98027.84
2022-08-07T01:42:40.281Z,98030.91
2022-08-07T01:45:23.095Z,98033.56
2022-08-07T01:48:18.555Z,98034.97
2022-08-07T01:50:58.906Z,98021.97
2022-08-07T01:54:12.659Z,98026.06
2022-08-07T01:56:25.338Z,98026.41
2022-08-07T01:59:06.310Z,98026.69
2022-08-07T02:01:59.480Z,98033.19
2022-08-07T02:04:32.475Z,98038.91
2022-08-07T02:07:04.150Z,98037.44
2022-08-07T02:09:51.632Z,98030.09
2022-08-07T02:12:30.868Z,98035.88
2022-08-07T02:15:00.948Z,98030.09
2022-08-07T02:17:36.386Z,98032.66
2022-08-07T02:20:10.031Z,98030.09
2022-08-07T02:22:46.623Z,98039.38
2022-08-07T02:25:22.134Z,98031.69
2022-08-07T02:28:12.259Z,98031.09
2022-08-07T02:30:41.005Z,98015.78
2022-08-07T02:33:10.567Z,98023.94
2022-08-07T02:36:30.569Z,98023.13
2022-08-07T02:38:36.912Z,98020.19
2022-08-07T02:41:05.634Z,98014.31
2022-08-07T02:43:39.462Z,98016.75
2022-08-07T02:46:08.906Z,98012.75
2022-08-07T02:48:38.094Z,98014.59
2022-08-07T02:51:14.226Z,98010.56
2022-08-07T02:53:58.026Z,98003.09
2022-08-07T02:56:29.755Z,98002.19
2022-08-07T02:59:02.163Z,98002.50
2022-08-07T03:01:35.799Z,98004.22
2022-08-07T03:04:12.909Z,98003.78
2022-08-07T03:06:44.812Z,97999.66
2022-08-07T03:09:42.330Z,98004.44
2022-08-07T03:12:08.135Z,98005.41
2022-08-07T03:14:52.832Z,97996.97
2022-08-07T03:17:22.203Z,98005.03
2022-08-07T03:19:54.899Z,98001.72
2022-08-07T03:22:30.228Z,97997.97
2022-08-07T03:25:00.156Z,98002.47
2022-08-07T03:27:58.707Z,98005.78
2022-08-07T03:30:18.534Z,98000.44
2022-08-07T03:32:58.902Z,98004.22
2022-08-07T03:35:43.858Z,97997.41
2022-08-07T03:38:21.435Z,98000.06
2022-08-07T03:41:00.552Z,97998.41
2022-08-07T03:43:32.393Z,97998.88
2022-08-07T03:46:10.482Z,97993.09
2022-08-07T03:49:02.892Z,98000.44
2022-08-07T03:51:47.092Z,98006.13
2022-08-07T03:54:36.120Z,98004.91
2022-08-07T03:57:07.621Z,98007.13
2022-08-07T03:59:37.049Z,98002.47
2022-08-07T04:02:14.700Z,98007.03
2022-08-07T04:04:42.799Z,98007.41
2022-08-07T04:07:17.453Z,98008.78
2022-08-07T04:09:50.555Z,98003.28
2022-08-07T04:12:26.912Z,98005.22
2022-08-07T04:14:59.497Z,98002.19
2022-08-07T04:17:45.676Z,98000.53
2022-08-07T04:20:19.613Z,97996.69
2022-08-07T04:22:53.634Z,98004.22
2022-08-07T04:25:39.502Z,97997.69
2022-08-07T04:28:10.407Z,98004.31
2022-08-07T04:30:55.426Z,98005.78
2022-08-07T04:33:28.722Z,98004.22
2022-08-07T04:35:56.791Z,98003.22
2022-08-07T04:38:27.927Z,98007.81
2022-08-07T04:40:57.392Z,98017.31
2022-08-07T04:44:12.292Z,98010.72
2022-08-07T04:46:34.695Z,98006.56
2022-08-07T04:49:28.732Z,98012.75
2022-08-07T04:52:04.294Z,98017.13
2022-08-07T04:54:58.092Z,98011.53
2022-08-07T04:58:23.768Z,98009.22
2022-08-07T05:01:14.725Z,98012.25
2022-08-07T05:04:17.790Z,98021.03
2022-08-07T05:07:09.581Z,98017.06
2022-08-07T05:10:11.789Z,98017.00
2022-08-07T05:12:53.085Z,98018.41
2022-08-07T05:15:35.992Z,98022.34
2022-08-07T05:18:09.128Z,98024.97
2022-08-07T05:20:48.041Z,98035.16
2022-08-07T05:23:29.858Z,98036.50
2022-08-07T05:26:12.974Z,98026.16
2022-08-07T05:28:48.721Z,98032.88
2022-08-07T05:31:23.230Z,98033.28
2022-08-07T05:34:04.766Z,98031.50
2022-08-07T05:36:39.008Z,98037.84
2022-08-07T05:40:06.374Z,98033.34
2022-08-07T05:42:07.368Z,98037.84
2022-08-07T05:44:46.447Z,98044.06
2022-08-07T05:47:38.178Z,98033.66
2022-08-07T05:50:10.202Z,98039.00
2022-08-07T05:52:37.351Z,98043.84
2022-08-07T05:55:10.967Z,98038.22
2022-08-07T05:57:43.194Z,98044.06
2022-08-07T06:00:16.643Z,98043.97
2022-08-07T06:02:55.955Z,98042.59
2022-08-07T06:05:28.822Z,98043.06
2022-08-07T06:08:14.594Z,98046.19
2022-08-07T06:10:52.061Z,98048.88
2022-08-07T06:14:13.173Z,98044.97
2022-08-07T06:16:13.420Z,98047.50
2022-08-07T06:18:51.794Z,98045.81
2022-08-07T06:22:15.646Z,98047.47
2022-08-07T06:24:41.932Z,98050.84
2022-08-07T06:27:00.194Z,98050.63
2022-08-07T06:29:31.919Z,98057.13
2022-08-07T06:31:58.705Z,98065.19
2022-08-07T06:34:29.781Z,98054.75
2022-08-07T06:36:59.338Z,98059.16
2022-08-07T06:40:16.344Z,98066.84
2022-08-07T06:42:34.985Z,98074.28
2022-08-07T06:45:23.816Z,98065.69
2022-08-07T06:48:01.436Z,98057.94
2022-08-07T06:50:39.303Z,98062.63
2022-08-07T06:54:11.934Z,98064.63
2022-08-07T06:56:03.492Z,98058.44
2022-08-07T06:58:37.432Z,98060.38
2022-08-07T07:01:14.419Z,98058.75
2022-08-07T07:03:49.285Z,98052.28
2022-08-07T07:06:26.318Z,98057.38
2022-08-07T07:08:54.862Z,98062.47
2022-08-07T07:12:08.937Z,98061.56
2022-08-07T07:14:11.939Z,98053.00
2022-08-07T07:16:49.925Z,98052.91
2022-08-07T07:19:55.071Z,98058.06
2022-08-07T07:22:36.930Z,98045.50
2022-08-07T07:26:30.417Z,98050.38
2022-08-07T07:28:29.757Z,98047.34
2022-08-07T07:31:30.446Z,98047.66
2022-08-07T07:34:11.641Z,98053.06
2022-08-07T07:36:47.917Z,98048.19
2022-08-07T07:39:21.368Z,98043.09
2022-08-07T07:42:12.871Z,98040.66
2022-08-07T07:44:41.974Z,98036.41
2022-08-07T07:47:23.763Z,98045.75
2022-08-07T07:50:34.142Z,98043.22
2022-08-07T07:52:41.761Z,98039.28
2022-08-07T07:55:10.957Z,98039.34
2022-08-07T07:57:43.830Z,98039.25
2022-08-07T08:00:29.210Z,98042.00
2022-08-07T08:03:05.674Z,98032.31
2022-08-07T08:05:51.017Z,98027.69
2022-08-07T08:08:35.112Z,98033.09
2022-08-07T08:11:13.662Z,98035.91
2022-08-07T08:13:54.255Z,98034.28
2022-08-07T08:16:29.907Z,98030.91
2022-08-07T08:19:00.471Z,98028.56
2022-08-07T08:22:03.082Z,98028.81
2022-08-07T08:25:04.866Z,98032.94
2022-08-07T08:27:57.523Z,98025.44
2022-08-07T08:30:34.581Z,98038.44
2022-08-07T08:33:05.367Z,98027.09
2022-08-07T08:35:43.040Z,98024.88
2022-08-07T08:38:20.555Z,98031.94
2022-08-07T08:41:07.427Z,98030.63
2022-08-07T08:43:55.797Z,98025.66
2022-08-07T08:46:34.231Z,98029.94
2022-08-07T08:49:33.497Z,98026.53
2022-08-07T08:52:22.010Z,98026.88
2022-08-07T08:55:10.107Z,98028.72
2022-08-07T08:58:24.703Z,98020.28
2022-08-07T09:01:15.844Z,98019.13
2022-08-07T09:03:58.259Z,98017.63
2022-08-07T09:06:47.772Z,98025.19
2022-08-07T09:09:56.820Z,98016.97
2022-08-07T09:12:42.064Z,98010.28
2022-08-07T09:16:23.130Z,98019.81
2022-08-07T09:18:13.899Z,98010.84
2022-08-07T09:20:58.362Z,98014.56
2022-08-07T09:24:30.374Z,98012.03
2022-08-07T09:26:32.838Z,98008.47
2022-08-07T09:30:01.924Z,98012.16
2022-08-07T09:32:38.171Z,98005.13
2022-08-07T09:36:03.026Z,98000.16
2022-08-07T09:38:23.601Z,97994.97
2022-08-07T09:41:36.292Z,97993.88
2022-08-07T09:47:24.873Z,97996.72
2022-08-07T09:48:01.400Z,97993.16
2022-08-07T09:52:15.745Z,97985.44
2022-08-07T09:54:16.275Z,97987.69
2022-08-07T09:57:14.143Z,97985.25
2022-08-07T10:00:00.880Z,97977.59
2022-08-07T10:04:05.879Z,97972.34
2022-08-07T10:06:09.018Z,97972.63
2022-08-07T10:09:34.202Z,97966.59
2022-08-07T10:12:32.037Z,97957.50
2022-08-07T10:15:05.286Z,97961.31
2022-08-07T10:18:01.337Z,97953.31
2022-08-07T10:21:02.980Z,97947.16
2022-08-07T10:24:05.280Z,97943.28
2022-08-07T10:26:33.893Z,97942.03
2022-08-07T10:29:19.495Z,97938.84
2022-08-07T10:32:04.034Z,97934.63
2022-08-07T10:34:47.746Z,97934.97
2022-08-07T10:37:26.506Z,97937.56
2022-08-07T10:40:48.470Z,97933.53
2022-08-07T10:43:29.811Z,97936.13
2022-08-07T10:46:09.691Z,97931.59
2022-08-07T10:48:48.663Z,97938.16
2022-08-07T10:51:57.320Z,97935.28
2022-08-07T10:54:12.243Z,97928.78
2022-08-07T10:56:57.275Z,97922.63
2022-08-07T10:59:47.718Z,97926.59
2022-08-07T11:02:33.526Z,97919.38
2022-08-07T11:05:35.843Z,97908.78
2022-08-07T11:08:43.281Z,97914.38
2022-08-07T11:11:24.381Z,97912.34
2022-08-07T11:14:45.087Z,97913.34
2022-08-07T11:17:02.029Z,97913.28
2022-08-07T11:20:14.101Z,97898.63
2022-08-07T11:22:59.438Z,97890.88
2022-08-07T11:25:47.903Z,97887.38
2022-08-07T11:28:24.820Z,97896.09
2022-08-07T11:30:52.297Z,97893.38
2022-08-07T11:33:54.354Z,97890.94
2022-08-07T11:36:30.805Z,97881.06
2022-08-07T11:39:58.834Z,97883.59
2022-08-07T11:42:42.561Z,97883.38
2022-08-07T11:45:35.550Z,97875.44
2022-08-07T11:48:29.706Z,97875.78
2022-08-07T11:51:09.665Z,97869.81
2022-08-07T11:54:01.109Z,97870.13
2022-08-07T11:56:56.280Z,97871.22
2022-08-07T12:00:12.466Z,97864.16
2022-08-07T12:02:53.649Z,97859.50
2022-08-07T12:05:47.663Z,97864.13
2022-08-07T12:08:38.282Z,97857.06
2022-08-07T12:11:22.053Z,97853.09
2022-08-07T12:13:58.132Z,97852.81
2022-08-07T12:16:31.091Z,97844.97
2022-08-07T12:19:14.718Z,97842.75
2022-08-07T12:22:38.689Z,97846.81
2022-08-07T12:26:21.472Z,97852.50
2022-08-07T12:28:49.773Z,97846.69
2022-08-07T12:32:01.674Z,97847.22
2022-08-07T12:34:34.581Z,97846.72
2022-08-07T12:37:08.269Z,97848.75
2022-08-07T12:39:50.825Z,97843.44
2022-08-07T12:42:27.172Z,97844.22
2022-08-07T12:44:58.055Z,97840.16
2022-08-07T12:47:49.319Z,97837.63
2022-08-07T12:50:33.786Z,97837.84
2022-08-07T12:53:29.917Z,97831.16
2022-08-07T12:56:19.483Z,97839.47
2022-08-07T12:58:57.345Z,97835.63
2022-08-07T13:01:27.947Z,97840.34
2022-08-07T13:04:34.077Z,97839.78
2022-08-07T13:07:06.712Z,97836.03
2022-08-07T13:10:29.175Z,97837.38
2022-08-07T13:12:59.599Z,97834.34
2022-08-07T13:16:00.320Z,97830.13
2022-08-07T13:18:34.217Z,97832.41
2022-08-07T13:21:50.582Z,97834.59
2022-08-07T13:24:43.953Z,97834.31
2022-08-07T13:28:05.701Z,97833.72
2022-08-07T13:30:39.640Z,97835.28
2022-08-07T13:34:30.878Z,97839.00
2022-08-07T13:36:05.615Z,97837.78
2022-08-07T13:38:47.504Z,97826.44
2022-08-07T13:41:23.350Z,97829.91
2022-08-07T13:43:57.062Z,97829.41
2022-08-07T13:46:33.196Z,97820.59
2022-08-07T13:49:08.907Z,97823.38
2022-08-07T13:52:23.034Z,97817.81
2022-08-07T13:54:41.807Z,97814.63
2022-08-07T13:57:24.070Z,97823.13
2022-08-07T14:00:07.066Z,97822.03
2022-08-07T14:02:51.191Z,97813.00
2022-08-07T14:05:23.503Z,97815.31
2022-08-07T14:08:00.418Z,97811.09
2022-08-07T14:10:34.744Z,97809.13
2022-08-07T14:13:14.205Z,97811.81
2022-08-07T14:15:45.178Z,97804.28
2022-08-07T14:18:33.437Z,97797.31
2022-08-07T14:22:01.420Z,97796.50
2022-08-07T14:24:26.789Z,97796.34
2022-08-07T14:27:01.132Z,97789.66
2022-08-07T14:30:06.367Z,97785.84
2022-08-07T14:32:45.702Z,97792.63
2022-08-07T14:35:45.691Z,97784.47
2022-08-07T14:38:26.279Z,97799.38
2022-08-07T14:41:04.172Z,97794.94
2022-08-07T14:43:58.341Z,97796.94
2022-08-07T14:46:31.052Z,97788.78
2022-08-07T14:49:17.498Z,97787.06
2022-08-07T14:54:41.954Z,97773.22
2022-08-07T14:57:19.337Z,97779.81
2022-08-07T15:02:39.192Z,97782.78
2022-08-07T15:05:20.618Z,97772.66
2022-08-07T15:07:51.819Z,97778.88
2022-08-07T15:10:29.952Z,97783.41
2022-08-07T15:13:15.507Z,97777.94
2022-08-07T15:15:52.859Z,97779.66
2022-08-07T15:18:35.975Z,97769.78
2022-08-07T15:21:08.323Z,97779.34
2022-08-07T15:25:14.310Z,97773.94
2022-08-07T15:26:50.412Z,97775.97
2022-08-07T15:32:11.786Z,97778.97
2022-08-07T15:38:18.234Z,97779.50
2022-08-07T15:46:32.142Z,97781.09
2022-08-07T15:49:11.687Z,97775.78
2022-08-07T15:54:34.083Z,97780.06
2022-08-07T15:57:03.094Z,97772.34
2022-08-07T15:59:39.015Z,97776.09
2022-08-07T16:02:15.187Z,97770.16
2022-08-07T16:04:43.991Z,97773.13
2022-08-07T16:08:28.569Z,97767.03
2022-08-07T16:10:14.734Z,97771.66
2022-08-07T16:12:41.718Z,97769.53
2022-08-07T16:16:03.476Z,97770.84
2022-08-07T16:18:49.390Z,97767.66
2022-08-07T16:22:04.113Z,97768.38
2022-08-07T16:24:52.690Z,97772.59
2022-08-07T16:27:40.407Z,97768.50
2022-08-07T16:30:30.580Z,97772.47
2022-08-07T16:34:01.723Z,97779.59
2022-08-07T16:36:22.207Z,97777.72
2022-08-07T16:39:10.418Z,97770.56
2022-08-07T16:42:00.111Z,97768.22
2022-08-07T16:45:15.278Z,97773.47
2022-08-07T16:48:09.466Z,97771.56
2022-08-07T16:51:20.687Z,97775.75
2022-08-07T16:54:16.710Z,97777.94
2022-08-07T16:56:56.845Z,97785.19
2022-08-07T16:59:51.215Z,97781.56
2022-08-07T17:02:53.390Z,97787.75
2022-08-07T17:06:19.004Z,97786.09
2022-08-07T17:08:09.269Z,97788.66
2022-08-07T17:10:54.429Z,97794.84
2022-08-07T17:13:41.204Z,97793.59
2022-08-07T17:16:44.644Z,97789.84
2022-08-07T17:20:01.690Z,97790.66
2022-08-07T17:22:38.122Z,97789.25
2022-08-07T17:25:47.458Z,97790.00
2022-08-07T17:28:19.345Z,97797.06
2022-08-07T17:31:17.059Z,97797.28
2022-08-07T17:34:18.056Z,97798.41
2022-08-07T17:36:57.845Z,97805.50
2022-08-07T17:39:58.278Z,97797.97
2022-08-07T17:42:35.946Z,97806.94
2022-08-07T17:45:27.401Z,97813.19
2022-08-07T17:48:12.643Z,97812.19
2022-08-07T17:51:21.519Z,97824.06
2022-08-07T17:54:12.432Z,97821.63
2022-08-07T17:56:49.932Z,97818.41
2022-08-07T17:59:22.235Z,97821.97
2022-08-07T18:01:57.750Z,97832.19
2022-08-07T18:04:42.375Z,97833.75
2022-08-07T18:07:20.747Z,97839.72
2022-08-07T18:10:07.391Z,97837.97
2022-08-07T18:13:01.642Z,97840.28
2022-08-07T18:15:38.061Z,97838.28
2022-08-07T18:18:45.093Z,97840.59
2022-08-07T18:21:38.269Z,97843.38
2022-08-07T18:24:37.534Z,97849.19
2022-08-07T18:27:09.834Z,97853.53
2022-08-07T18:30:07.189Z,97849.25
2022-08-07T18:33:10.541Z,97844.94
2022-08-07T18:36:08.023Z,97856.97
2022-08-07T18:40:05.334Z,97852.88
2022-08-07T18:42:41.630Z,97846.06
2022-08-07T18:45:43.179Z,97862.16
2022-08-07T18:50:05.908Z,97857.06
2022-08-07T18:51:04.433Z,97854.78
2022-08-07T18:53:54.175Z,97863.88
2022-08-07T18:57:30.564Z,97869.28
2022-08-07T19:00:32.759Z,97871.16
2022-08-07T19:03:11.658Z,97877.78
2022-08-07T19:06:08.043Z,97871.81
2022-08-07T19:08:40.859Z,97877.81
2022-08-07T19:11:36.456Z,97880.09
2022-08-07T19:14:26.273Z,97884.63
2022-08-07T19:17:07.790Z,97881.38
2022-08-07T19:20:06.602Z,97882.81
2022-08-07T19:23:18.279Z,97883.88
2022-08-07T19:26:22.769Z,97901.19
2022-08-07T19:30:55.343Z,97899.34
2022-08-07T19:31:59.986Z,97903.25
2022-08-07T19:34:33.898Z,97914.34
2022-08-07T19:37:10.285Z,97911.91
2022-08-07T19:39:57.199Z,97913.34
2022-08-07T19:42:30.779Z,97923.22
2022-08-07T19:45:09.492Z,97926.72
2022-08-07T19:47:41.868Z,97935.97
2022-08-07T19:50:41.325Z,97934.75
2022-08-07T19:52:59.404Z,97935.97
2022-08-07T19:55:56.795Z,97939.28
2022-08-07T19:58:18.535Z,97927.13
2022-08-07T20:00:57.477Z,97935.56
2022-08-07T20:03:34.677Z,97932.88
2022-08-07T20:06:05.035Z,97934.75
2022-08-07T20:08:35.839Z,97933.50
2022-08-07T20:11:10.501Z,97942.94
2022-08-07T20:13:53.080Z,97940.47
2022-08-07T20:16:35.584Z,97944.16
2022-08-07T20:19:10.972Z,97939.03
2022-08-07T20:21:48.325Z,97945.16
2022-08-07T20:24:23.530Z,97942.72
2022-08-07T20:26:59.086Z,97945.41
2022-08-07T20:29:48.375Z,97950.94
2022-08-07T20:32:26.407Z,97948.06
2022-08-07T20:35:11.579Z,97944.78
2022-08-07T20:37:57.667Z,97945.16
2022-08-07T20:40:34.534Z,97959.31
2022-08-07T20:43:14.469Z,97958.25
2022-08-07T20:46:27.398Z,97956.00
2022-08-07T20:48:37.191Z,97951.28
2022-08-07T20:51:09.387Z,97958.03
2022-08-07T20:54:03.285Z,97958.22
2022-08-07T20:56:29.406Z,97952.25
2022-08-07T20:59:01.381Z,97954.09
2022-08-07T21:01:45.368Z,97956.97
2022-08-07T21:04:22.676Z,97968.47
2022-08-07T21:06:57.112Z,97966.00
2022-08-07T21:09:35.485Z,97962.69
2022-08-07T21:12:29.046Z,97968.22
2022-08-07T21:15:02.490Z,97961.88
2022-08-07T21:18:02.950Z,97967.59
2022-08-07T21:20:29.811Z,97966.78
2022-08-07T21:23:07.429Z,97965.56
2022-08-07T21:25:50.152Z,97971.53
2022-08-07T21:28:48.234Z,97969.88
2022-08-07T21:32:42.043Z,97971.13
2022-08-07T21:34:48.588Z,97971.75
2022-08-07T21:37:24.841Z,97963.31
2022-08-07T21:39:55.153Z,97962.31
2022-08-07T21:43:04.438Z,97963.94
2022-08-07T21:46:08.533Z,97956.56
2022-08-07T21:48:43.755Z,97953.66
2022-08-07T21:51:25.411Z,97950.41
2022-08-07T21:54:01.231Z,97964.38
2022-08-07T21:56:40.239Z,97959.06
2022-08-07T22:00:04.383Z,97960.72
2022-08-07T22:02:57.697Z,97958.66
2022-08-07T22:05:45.862Z,97954.34
2022-08-07T22:08:19.732Z,97952.91
2022-08-07T22:10:51.129Z,97961.53
2022-08-07T22:13:23.961Z,97946.34
2022-08-07T22:16:38.482Z,97952.06
2022-08-07T22:18:57.105Z,97947.13
2022-08-07T22:22:04.822Z,97946.91
2022-08-07T22:24:33.306Z,97942.56
2022-08-07T22:27:06.279Z,97946.28
2022-08-07T22:29:48.083Z,97947.09
2022-08-07T22:32:26.396Z,97941.75
2022-08-07T22:34:56.207Z,97943.38
2022-08-07T22:38:01.688Z,97937.22
2022-08-07T22:40:41.246Z,97939.03
2022-08-07T22:43:15.831Z,97936.19
2022-08-07T22:46:56.024Z,97932.47
2022-08-07T22:49:05.654Z,97931.00
2022-08-07T22:52:07.058Z,97931.03
2022-08-07T22:55:17.097Z,97931.81
2022-08-07T22:58:09.360Z,97928.91
2022-08-07T23:00:46.057Z,97925.59
2022-08-07T23:03:57.271Z,97926.44
2022-08-07T23:06:51.615Z,97925.38
2022-08-07T23:10:34.160Z,97917.59
2022-08-07T23:13:16.944Z,97915.94
2022-08-07T23:16:06.385Z,97914.47
2022-08-07T23:18:34.271Z,97911.59
2022-08-07T23:21:29.808Z,97914.69
2022-08-07T23:24:22.490Z,97908.50
2022-08-07T23:26:57.832Z,97910.75
2022-08-07T23:30:38.438Z,97909.72
2022-08-07T23:34:21.847Z,97905.19
2022-08-07T23:36:17.120Z,97899.66
2022-08-07T23:39:12.681Z,97898.03
2022-08-07T23:42:21.691Z,97893.09
2022-08-07T23:45:03.465Z,97899.06
2022-08-07T23:48:02.887Z,97897.19
2022-08-07T23:50:48.154Z,97898.22
2022-08-07T23:53:51.344Z,97897.59
2022-08-07T23:56:14.781Z,97897.38
2022-08-07T23:59:00.207Z,97905.78
